logo
App data

Alien Shooter

Your mission is simple: clear the base at all costs. You will be provided with explosives to help you gain access to the teleports from where thousands of pitiless creatures pour.
Store | Hub | SteamDB | Site
Developer: Sigma Team Inc. Publisher: Sigma Team Inc.
Genre: Action, Indie, RPG
Languages: English, Russian
Tags: Action (157), Shooter (152), Blood (148), Horror (143), Aliens (141), Action RPG (134), Gore (131), Sci-fi (127), RPG (125), Beat 'em up (123), Singleplayer (123), Isometric (120), Top-Down (120), Looter Shooter (113), Indie (106), Top-Down Shooter (100), Atmospheric (94), Arcade (92), Rogue-like (85), Arena Shooter (79)
Category: Single-player, Steam Achievements, Steam Trading Cards, Partial Controller Support, Steam Cloud, Steam Leaderboards
Release date: May 27, 2009
Price: $4.99
Old userscore: 93% Owners: 200,000 .. 500,000
Followers: 2,850
Peak concurrent players yesterday: 21
YouTube stats: 18,498 views and 154 comments for top 50 videos uploaded last week, 14 new videos uploaded yesterday.
Playtime in the last 2 weeks: 05:10 (average) 09:46 (median)
Playtime total: 04:57 (average) 03:19 (median)

Steam Spy is still in beta, so expect major bugs.

Owners data:

Access restricted.

This feature is only available to users with special access rights. Sorry.

If you want to proceed, you need to register or log in first and then back Steam Spy on Patreon. Look for Indie or Pro pledge.

Don't forget to use the same email as on Steam Spy!

If you've recently backed Steam Spy on Patreon, please note, that it might take around 15 minutes for your access rights to sync. In most cases you'll need to re-login on Steam Spy too.

Audience in 2 weeks:

Access restricted.

This feature is only available to users with special access rights. Sorry.

If you want to proceed, you need to register or log in first and then back Steam Spy on Patreon. Look for Indie or Pro pledge.

Don't forget to use the same email as on Steam Spy!

If you've recently backed Steam Spy on Patreon, please note, that it might take around 15 minutes for your access rights to sync. In most cases you'll need to re-login on Steam Spy too.

Peak daily concurrent players:

CCU data courtesy of SteamDB. Used with permission.

Hourly concurrent players:

Daily Twitch stats:

Hourly Twitch stats:

Followers over time

Access restricted.

This feature is only available to users with special access rights. Sorry.

If you want to proceed, you need to register or log in first and then back Steam Spy on Patreon. Look for Indie or Pro pledge.

Don't forget to use the same email as on Steam Spy!

If you've recently backed Steam Spy on Patreon, please note, that it might take around 15 minutes for your access rights to sync. In most cases you'll need to re-login on Steam Spy too.

Views for top 50 videos on YouTube for this game:

Games similar to this one:

# Game Release date
Price
Score rank
(Userscore / Metascore)
Owners
Players
Playtime (Median)
1 Shadow Man Mar 9, 1999 $4.99N/A (N/A)50,000 .. 100,0000%00:00 (00:00)
2 Blades of Time Apr 20, 2012 $9.99N/A (N/A/63%)200,000 .. 500,0000%00:00 (00:00)
3 Plain Sight Apr 5, 2010 $4.99N/A (N/A/76%)50,000 .. 100,0000%00:00 (00:00)
4 Twin Sector Sep 16, 2009 $4.99N/A (N/A)50,000 .. 100,0000%00:00 (00:00)
5 QUAKE Mission Pack 1: Scourge of Armagon Feb 28, 1997 $2.99N/A (N/A)50,000 .. 100,0000%00:00 (00:00)
6 Yomawari: Night Alone Oct 25, 2016 $9.99N/A (N/A)50,000 .. 100,0000%00:00 (00:00)
7 ABRACA - Imagic Games Mar 31, 2016 $14.99N/A (N/A)0 .. 20,0000%00:00 (00:00)
8 House of the Dying Sun Nov 1, 2016 $19.99N/A (N/A/76%)100,000 .. 200,0000%00:00 (00:00)
9 Thunder Wolves May 15, 2013 $9.99N/A (N/A/69%)100,000 .. 200,0000%00:00 (00:00)
10 Serious Sam Double D XXL Aug 30, 2011 $9.99N/A (N/A)200,000 .. 500,0000%00:00 (00:00)
11 SEGA Mega Drive and Genesis Classics Jun 1, 2010 N/AN/A (N/A)1,000,000 .. 2,000,0001.12%00:14 (00:18)
12 Tom Clancy's Ghost Recon Desert Siege Jul 15, 2008 $4.99N/A (N/A/82%)100,000 .. 200,0000%00:00 (00:00)
13 Glass Wing Jun 24, 2015 N/AN/A (N/A)50,000 .. 100,0000%00:00 (00:00)
14 The Stalin Subway: Red Veil Oct 24, 2014 $2.99N/A (N/A)50,000 .. 100,0000%00:00 (00:00)
15 Hot Tin Roof: The Cat That Wore A Fedora Feb 20, 2015 $14.99N/A (N/A/66%)50,000 .. 100,0000%00:00 (00:00)
16 Cannon Fodder 3 Aug 6, 2012 $14.99N/A (N/A/49%)20,000 .. 50,0000%00:00 (00:00)
17 NyxQuest: Kindred Spirits Sep 27, 2010 $2.99N/A (N/A)20,000 .. 50,0000%00:00 (00:00)
18 Booster Trooper Apr 16, 2010 $1.99N/A (N/A)50,000 .. 100,0000%00:00 (00:00)
19 Frontlines: Fuel of War Feb 27, 2008 $19.99N/A (N/A/73%)200,000 .. 500,0005%00:01 (00:00)
20 Scrap Garden - The Day Before Oct 7, 2016 FreeN/A (N/A)200,000 .. 500,0000%00:00 (00:00)
21 Rad Rodgers: World One Dec 1, 2016 N/AN/A (N/A/72%)0 .. 20,0000%00:00 (00:00)
22 Majestic Nights Oct 30, 2014 $4.99N/A (N/A/32%)20,000 .. 50,0000%00:00 (00:00)
23 Strike Suit Infinity Apr 30, 2013 $6.99N/A (N/A/66%)20,000 .. 50,0000%00:00 (00:00)
24 Global Ops: Commando Libya Oct 26, 2011 $4.99N/A (N/A/37%)50,000 .. 100,0000%00:00 (00:00)
25 Project Freedom Oct 14, 2009 $2.99N/A (N/A)20,000 .. 50,0000%00:00 (00:00)
26 Tom Clancy's Rainbow Six Lockdown May 13, 2008 $9.99N/A (N/A/59%)100,000 .. 200,0000%00:00 (00:00)
27 Zanzarah: The Hidden Portal Aug 20, 2015 $7.99N/A (N/A)100,000 .. 200,0000%00:00 (00:00)
28 OCEAN CITY RACING Nov 14, 2014 $1.99N/A (N/A)100,000 .. 200,0000%00:00 (00:00)
29 Alone in the Dark Oct 29, 2013 $9.99N/A (N/A/55%)20,000 .. 50,0000%00:00 (00:00)
30 Kung Fu Strike - The Warrior's Rise Jul 24, 2012 $9.99N/A (N/A)100,000 .. 200,0000%00:00 (00:00)
31 The First Templar - Steam Special Edition May 12, 2011 $9.99N/A (N/A/57%)100,000 .. 200,0000%00:00 (00:00)
32 Dead Horde Jul 27, 2011 $5.99N/A (N/A)50,000 .. 100,0000%00:00 (00:00)
33 TimeShift Jul 23, 2009 $19.99N/A (N/A/71%)100,000 .. 200,0000%00:00 (00:00)
34 THOTH Oct 7, 2016 $4.99N/A (N/A)50,000 .. 100,0000%00:00 (00:00)
35 Hocus Pocus Jun 1, 1994 $4.99N/A (N/A)20,000 .. 50,0000%00:00 (00:00)
36 Project Root May 1, 2014 $2.49N/A (N/A)20,000 .. 50,0000%00:00 (00:00)
37 The Apogee Throwback Pack Jul 1, 2013 $9.99N/A (N/A)200,000 .. 500,0000%00:00 (00:00)
38 Choplifter HD Jan 11, 2012 N/AN/A (N/A/65%)20,000 .. 50,0000%00:00 (00:00)
39 Painkiller: Resurrection Oct 27, 2009 $9.99N/A (N/A/38%)100,000 .. 200,0000%00:00 (00:00)
40 Legendary Dec 1, 2008 $4.99N/A (N/A/50%)200,000 .. 500,0000%00:00 (00:00)
41 Mighty Gunvolt Sep 29, 2015 $4.99N/A (N/A)20,000 .. 50,0000%00:00 (00:00)
42 Vertical Drop Heroes HD Jul 25, 2014 $6.99N/A (N/A/70%)100,000 .. 200,0000%00:00 (00:00)
43 Tango Fiesta – 80’s Action Film meets 2D Top Down Multiplayer Co-Op Roguelike Military Shooter Sep 24, 2015 $9.99N/A (N/A)20,000 .. 50,0000%00:00 (00:00)
44 Intrusion 2 Sep 11, 2012 $9.99N/A (N/A/80%)200,000 .. 500,0000%00:00 (00:00)
45 Painkiller Redemption Feb 25, 2011 $4.99N/A (N/A/43%)200,000 .. 500,0000%00:00 (00:00)
46 Sam & Max 301: The Penal Zone N/AN/A (N/A)50,000 .. 100,0000%00:00 (00:00)
47 Larva Mortus Mar 19, 2009 $4.99N/A (N/A/64%)50,000 .. 100,0000%00:00 (00:00)
48 Unbox: Newbie's Adventure Sep 5, 2016 $19.99N/A (N/A/68%)50,000 .. 100,0000%00:00 (00:00)
49 Stargunner May 5, 2014 FreeN/A (N/A)20,000 .. 50,0000%00:00 (00:00)
50 Putt-Putt Saves The Zoo Jul 3, 2014 $6.99N/A (N/A)20,000 .. 50,0000%00:00 (00:00)
51 Rain Blood Chronicles: Mirage Nov 11, 2013 $4.99N/A (N/A/68%)0 .. 20,0000%00:00 (00:00)
52 Sonic the Hedgehog 4 - Episode II May 15, 2012 $9.99N/A (N/A/54%)100,000 .. 200,0000%00:00 (00:00)
53 AquaNox Nov 30, 2001 $4.99N/A (N/A/67%)100,000 .. 200,0000%00:00 (00:00)
54 Prince of Persia Dec 10, 2008 $9.99N/A (N/A/82%)200,000 .. 500,0000%00:00 (00:00)
55 The Ship: Single Player Nov 20, 2006 $9.99N/A (N/A)200,000 .. 500,0000%00:00 (00:00)
56 Square Brawl Oct 22, 2015 $4.99N/A (N/A)0 .. 20,0000%00:00 (00:00)
57 Disney G-Force Oct 6, 2014 $19.99N/A (N/A/61%)0 .. 20,0000%00:00 (00:00)
58 Spider: Rite of the Shrouded Moon Aug 6, 2015 $9.99N/A (N/A)20,000 .. 50,0000%00:00 (00:00)
59 Karateka Dec 3, 2012 $3.99N/A (N/A/48%)100,000 .. 200,0000%00:00 (00:00)
60 Xotic Sep 16, 2011 $9.99N/A (N/A/67%)50,000 .. 100,0000%00:00 (00:00)
61 Iron Grip: Warlord Dec 5, 2008 N/AN/A (N/A/59%)100,000 .. 200,0000%00:00 (00:00)
62 Damnation May 22, 2009 $9.99N/A (N/A/41%)50,000 .. 100,0000%00:00 (00:00)
63 Xmas Shooting - Scramble!! Dec 16, 2016 $4.99N/A (N/A)0 .. 20,0000%00:00 (00:00)
64 Rise of the Triad: Dark War May 5, 2014 $6.99N/A (N/A)0 .. 20,0000%00:00 (00:00)
65 Kraven Manor Sep 26, 2014 FreeN/A (N/A/58%)100,000 .. 200,0000%00:00 (00:00)
66 Guncraft Aug 9, 2013 $14.99N/A (N/A/73%)50,000 .. 100,0000%00:00 (00:00)
67 Foreign Legion: Multi Massacre Jul 9, 2012 $4.99N/A (N/A)20,000 .. 50,0000%00:00 (00:00)
68 AquaNox 2: Revelation Aug 19, 2003 $4.99N/A (N/A/59%)50,000 .. 100,0000%00:00 (00:00)
69 Bionic Commando Jul 28, 2009 $9.99N/A (N/A/69%)100,000 .. 200,0000%00:00 (00:00)
70 Alpha Prime Nov 7, 2007 $4.99N/A (N/A/59%)200,000 .. 500,0000%00:00 (00:00)
71 Little Big Adventure - Enhanced Edition Oct 14, 1994 $5.99N/A (N/A)20,000 .. 50,0000%00:00 (00:00)
72 Raiden IV: OverKill Sep 2, 2015 $14.99N/A (N/A)50,000 .. 100,0000%00:00 (00:00)
73 GIGANTIC ARMY Mar 6, 2014 $5.99N/A (N/A)50,000 .. 100,0000%00:00 (00:00)
74 iBomber Attack Nov 1, 2012 $5.99N/A (N/A)20,000 .. 50,0000%00:00 (00:00)
75 Capsized Apr 29, 2011 $9.99N/A (N/A/80%)200,000 .. 500,0000%00:00 (00:00)
76 Comanche 4 Jun 18, 2009 $9.99N/A (N/A/74%)20,000 .. 50,0000%00:00 (00:00)
77 Unreal 2: The Awakening Mar 17, 2008 $14.99N/A (N/A/75%)200,000 .. 500,0000%00:00 (00:00)
78 STAR WARS SHADOWS OF THE EMPIRE Feb 7, 2017 $5.99N/A (N/A)20,000 .. 50,0000%00:00 (00:00)
79 Mega Man Legacy Collection Aug 24, 2015 $14.99N/A (N/A/85%)200,000 .. 500,0000%00:00 (00:00)
80 Blood II: The Chosen + Expansion Oct 31, 1998 $4.99N/A (N/A/72%)20,000 .. 50,0000%00:00 (00:00)
81 Kill to Collect Apr 6, 2016 $9.99N/A (N/A/57%)50,000 .. 100,0000%00:00 (00:00)
82 Painkiller: Recurring Evil Feb 29, 2012 $9.99N/A (N/A/38%)50,000 .. 100,0000%00:00 (00:00)
83 Chaser Aug 22, 2003 $4.99N/A (N/A/66%)100,000 .. 200,0000%00:00 (00:00)
84 Bionic Commando: Rearmed Jul 28, 2009 $9.99N/A (N/A/86%)200,000 .. 500,0000%00:00 (00:00)
85 Painkiller Overdose Oct 30, 2007 $4.99N/A (N/A/65%)200,000 .. 500,0000%00:00 (00:00)
86 Mytheon Dec 8, 2015 $9.99N/A (N/A)0 .. 20,0000%00:00 (00:00)
87 Deer Hunt Legends Jan 16, 2015 $4.99N/A (N/A)0 .. 20,0000%00:00 (00:00)
88 Ubersoldier II Mar 25, 2014 $9.99N/A (N/A/62%)50,000 .. 100,0000%00:00 (00:00)
89 NiGHTS Into Dreams Dec 17, 2012 $7.99N/A (N/A)200,000 .. 500,0000%00:00 (00:00)
90 Garshasp: The Monster Slayer May 9, 2011 $4.99N/A (N/A/49%)50,000 .. 100,0000%00:00 (00:00)
91 Alien Shooter: Revisited May 27, 2009 $4.99N/A (N/A)200,000 .. 500,0000%00:00 (00:00)
92 Prince of Persia: Warrior Within Nov 21, 2008 $9.99N/A (N/A/83%)200,000 .. 500,0000%00:00 (00:00)
93 Dinosis Survival Jul 7, 2017 $4.99N/A (N/A)0 .. 20,0000%00:00 (00:00)
94 Grey Cubes May 15, 2015 N/AN/A (N/A)20,000 .. 50,0000%00:00 (00:00)
95 Chernobyl Commando Jun 6, 2014 N/AN/A (N/A)50,000 .. 100,0000%00:00 (00:00)
96 Blood Omen 2: Legacy of Kain Mar 29, 2002 $6.99N/A (N/A)200,000 .. 500,0000%00:00 (00:00)
97 Noitu Love 2: Devolution Apr 23, 2012 $4.99N/A (N/A/80%)50,000 .. 100,0000%00:00 (00:00)
98 DogFighter Jun 14, 2010 $0.99N/A (N/A)200,000 .. 500,0000%00:00 (00:00)
99 Alien Breed: Impact Jun 3, 2010 $9.99N/A (N/A/64%)200,000 .. 500,0000%00:00 (00:00)
100 Project: Snowblind Mar 29, 2007 $5.99N/A (N/A/76%)100,000 .. 200,0000%00:00 (00:00)
101 Spell Fighter VR Mar 1, 2016 FreeN/A (N/A)100,000 .. 200,0000%00:00 (00:00)
102 Down To One Jan 7, 2016 $0.99N/A (N/A)100,000 .. 200,0000%00:00 (00:00)
103 Explodemon Mar 25, 2014 $8.99N/A (N/A)20,000 .. 50,0000%00:00 (00:00)
104 Miner Wars 2081 Nov 28, 2012 $4.99N/A (N/A/52%)50,000 .. 100,0000%00:00 (00:00)
105 Garshasp: Temple of the Dragon Sep 24, 2012 $4.99N/A (N/A)20,000 .. 50,0000%00:00 (00:00)
106 Zombie Shooter May 27, 2009 $4.99N/A (N/A)100,000 .. 200,0000%00:00 (00:00)
107 Prince of Persia: The Two Thrones Nov 21, 2008 $9.99N/A (N/A/85%)200,000 .. 500,0000%00:00 (00:00)
108 PLANETS OF WAR Jun 30, 2017 $1.99N/A (N/A)20,000 .. 50,0000%00:00 (00:00)
109 Kung Fury: Street Rage May 28, 2015 N/AN/A (N/A)100,000 .. 200,0000%00:00 (00:00)
110 Manhunter May 30, 2014 N/AN/A (N/A)100,000 .. 200,0000%00:00 (00:00)
111 Strike Vector Jan 28, 2014 N/AN/A (N/A/73%)100,000 .. 200,0000%00:00 (00:00)
112 Sacred Citadel Apr 16, 2013 $9.99N/A (N/A/61%)500,000 .. 1,000,0000%00:00 (00:00)
113 Wasteland Angel Sep 1, 2011 $9.99N/A (N/A)20,000 .. 50,0000%00:00 (00:00)
114 Alien Breed 2: Assault Sep 22, 2010 $9.99N/A (N/A/63%)200,000 .. 500,0000%00:00 (00:00)
115 Conflict: Denied Ops Feb 8, 2008 $5.99N/A (N/A/58%)100,000 .. 200,0000%00:00 (00:00)
116 Phantaruk Aug 16, 2016 $4.99N/A (N/A/53%)20,000 .. 50,0000%00:00 (00:00)
117 Raptor: Call of The Shadows - 2015 Edition Feb 13, 2015 $4.99N/A (N/A)50,000 .. 100,0000%00:00 (00:00)
118 Stick 'Em Up 2: Paper Adventures Jul 27, 2015 $2.99N/A (N/A)20,000 .. 50,0000%00:00 (00:00)
119 Dragon's Lair May 17, 2013 $9.99N/A (N/A)50,000 .. 100,0000%00:00 (00:00)
120 Alien Zombie Megadeath Oct 18, 2011 $4.99N/A (N/A)20,000 .. 50,0000%00:00 (00:00)
121 Zombie Shooter 2 Nov 18, 2009 $9.99N/A (N/A)100,000 .. 200,0000%00:00 (00:00)
122 Tom Clancy's Rainbow Six Vegas Apr 9, 2008 $9.99N/A (N/A/85%)100,000 .. 200,0000%00:00 (00:00)
123 Cruel Arena Aug 18, 2015 $0.99N/A (N/A)200,000 .. 500,0000%00:00 (00:00)
124 The Way May 20, 2016 $14.99N/A (N/A/67%)100,000 .. 200,0000%00:00 (00:00)

Geography of active players over time, share:

Access restricted.

This feature is only available to users with special access rights. Sorry.

If you want to proceed, you need to register or log in first and then back Steam Spy on Patreon. Look for Indie or Pro pledge.

Don't forget to use the same email as on Steam Spy!

If you've recently backed Steam Spy on Patreon, please note, that it might take around 15 minutes for your access rights to sync. In most cases you'll need to re-login on Steam Spy too.

Tags over time:

Access restricted.

This feature is only available to users with special access rights. Sorry.

If you want to proceed, you need to register or log in first and then back Steam Spy on Patreon. Look for Indie or Pro pledge.

Don't forget to use the same email as on Steam Spy!

If you've recently backed Steam Spy on Patreon, please note, that it might take around 15 minutes for your access rights to sync. In most cases you'll need to re-login on Steam Spy too.

Owners of this game also own:

Access restricted.

This feature is only available to users with special access rights. Sorry.

If you want to proceed, you need to register or log in first and then back Steam Spy on Patreon. Look for Indie or Pro pledge.

Don't forget to use the same email as on Steam Spy!

If you've recently backed Steam Spy on Patreon, please note, that it might take around 15 minutes for your access rights to sync. In most cases you'll need to re-login on Steam Spy too.

Playtime distribution:

Access restricted.

This feature is only available to users with special access rights. Sorry.

If you want to proceed, you need to register or log in first and then back Steam Spy on Patreon. Look for Indie or Pro pledge.

Don't forget to use the same email as on Steam Spy!

If you've recently backed Steam Spy on Patreon, please note, that it might take around 15 minutes for your access rights to sync. In most cases you'll need to re-login on Steam Spy too.

Playtime (2 weeks):

Access restricted.

This feature is only available to users with special access rights. Sorry.

If you want to proceed, you need to register or log in first and then back Steam Spy on Patreon. Look for Indie or Pro pledge.

Don't forget to use the same email as on Steam Spy!

If you've recently backed Steam Spy on Patreon, please note, that it might take around 15 minutes for your access rights to sync. In most cases you'll need to re-login on Steam Spy too.

User reviews:

Login required.

Please register or log in to see this information.